createdAt,value
2022-08-03T00:00:26.955Z,21.98
2022-08-03T00:01:27.241Z,21.85
2022-08-03T00:02:27.535Z,21.85
2022-08-03T00:03:27.873Z,21.82
2022-08-03T00:04:33.966Z,21.90
2022-08-03T00:05:29.445Z,21.92
2022-08-03T00:06:30.059Z,21.95
2022-08-03T00:07:28.952Z,21.97
2022-08-03T00:08:29.211Z,21.95
2022-08-03T00:09:29.524Z,21.95
2022-08-03T00:10:34.682Z,21.92
2022-08-03T00:11:30.051Z,21.94
2022-08-03T00:12:30.339Z,21.94
2022-08-03T00:13:30.638Z,21.94
2022-08-03T00:14:30.971Z,21.92
2022-08-03T00:15:31.300Z,21.92
2022-08-03T00:16:31.604Z,21.92
2022-08-03T00:17:53.002Z,21.92
2022-08-03T00:18:33.179Z,21.91
2022-08-03T00:19:32.460Z,21.88
2022-08-03T00:20:32.793Z,21.88
2022-08-03T00:21:33.081Z,21.88
2022-08-03T00:22:33.360Z,21.85
2022-08-03T00:23:51.216Z,21.74
2022-08-03T00:24:34.950Z,21.59
2022-08-03T00:25:34.221Z,21.51
2022-08-03T00:26:34.519Z,21.46
2022-08-03T00:27:34.818Z,21.44
2022-08-03T00:28:35.141Z,21.45
2022-08-03T00:29:59.524Z,21.51
2022-08-03T00:30:36.751Z,21.53
2022-08-03T00:31:44.953Z,21.56
2022-08-03T00:32:37.269Z,21.59
2022-08-03T00:33:59.118Z,21.57
2022-08-03T00:34:57.990Z,21.59
2022-08-03T00:35:50.631Z,21.63
2022-08-03T00:36:38.436Z,21.66
2022-08-03T00:37:41.186Z,21.69
2022-08-03T00:38:37.991Z,21.66
2022-08-03T00:39:38.299Z,21.56
2022-08-03T00:40:38.604Z,21.54
2022-08-03T00:41:38.898Z,21.57
2022-08-03T00:42:39.211Z,21.54
2022-08-03T00:43:39.534Z,21.44
2022-08-03T00:44:39.847Z,21.36
2022-08-03T00:45:40.136Z,21.30
2022-08-03T00:46:41.206Z,21.24
2022-08-03T00:47:40.673Z,21.30
2022-08-03T00:48:40.981Z,21.36
2022-08-03T00:49:41.527Z,21.39
2022-08-03T00:50:41.523Z,21.42
2022-08-03T00:51:41.848Z,21.34
2022-08-03T00:52:42.150Z,21.24
2022-08-03T02:56:43.280Z,19.70
2022-08-03T02:57:43.119Z,19.73
2022-08-03T02:58:43.439Z,19.65
2022-08-03T02:59:43.754Z,19.55
2022-08-03T03:00:44.125Z,19.61
2022-08-03T03:01:44.335Z,19.75
2022-08-03T03:02:44.638Z,19.73
2022-08-03T03:03:45.149Z,19.65
2022-08-03T03:04:59.717Z,19.60
2022-08-03T03:05:54.740Z,19.57
2022-08-03T03:06:46.970Z,19.53
2022-08-03T03:07:52.977Z,19.50
2022-08-03T03:08:47.543Z,19.46
2022-08-03T03:09:46.793Z,19.38
2022-08-03T03:10:47.098Z,19.42
2022-08-03T03:11:47.400Z,19.43
2022-08-03T03:12:47.723Z,19.39
2022-08-03T03:13:48.022Z,19.51
2022-08-03T03:14:48.323Z,19.54
2022-08-03T03:15:48.619Z,19.51
2022-08-03T03:16:50.678Z,19.53
2022-08-03T03:17:49.242Z,19.61
2022-08-03T03:18:49.521Z,19.69
2022-08-03T03:19:49.814Z,19.69
2022-08-03T03:20:50.113Z,19.61
2022-08-03T03:21:50.441Z,19.68
2022-08-03T03:22:50.754Z,19.79
2022-08-03T03:23:51.048Z,19.80
2022-08-03T03:24:51.363Z,19.78
2022-08-03T03:25:51.651Z,19.76
2022-08-03T03:26:51.968Z,19.78
2022-08-03T03:27:52.243Z,19.88
2022-08-03T03:28:52.551Z,19.93
2022-08-03T03:29:52.851Z,19.94
2022-08-03T03:30:53.558Z,19.93
2022-08-03T03:31:53.381Z,19.98
2022-08-03T03:32:53.670Z,19.98
2022-08-03T03:33:53.973Z,19.86
2022-08-03T03:34:54.271Z,19.83
2022-08-03T03:35:54.587Z,19.72
2022-08-03T03:36:54.900Z,19.65
2022-08-03T03:37:55.195Z,19.55
2022-08-03T03:38:55.527Z,19.54
2022-08-03T03:39:55.824Z,19.53
2022-08-03T03:40:56.124Z,19.47
2022-08-03T03:41:56.427Z,19.36
2022-08-03T03:42:56.695Z,19.28
2022-08-03T03:43:56.999Z,19.28
2022-08-03T03:44:57.308Z,19.29
2022-08-03T03:45:57.627Z,19.39
2022-08-03T03:46:57.939Z,19.40
2022-08-03T03:47:58.223Z,19.36
2022-08-03T03:48:58.546Z,19.33
2022-08-03T03:49:58.774Z,19.33
2022-08-03T03:50:59.127Z,19.31
2022-08-03T03:51:59.307Z,19.28
2022-08-03T03:52:59.602Z,19.35
2022-08-03T03:53:59.897Z,19.39
2022-08-03T03:55:01.180Z,19.48
2022-08-03T03:56:02.869Z,19.58
2022-08-03T03:57:00.728Z,19.68
2022-08-03T03:58:01.021Z,19.69
2022-08-03T03:59:01.325Z,19.68
2022-08-03T04:00:01.667Z,19.65
2022-08-03T04:01:02.110Z,19.66
2022-08-03T04:02:02.257Z,19.72
2022-08-03T04:03:02.555Z,19.79
2022-08-03T04:04:02.859Z,19.79
2022-08-03T04:05:03.162Z,19.83
2022-08-03T04:06:03.491Z,19.76
2022-08-03T04:07:03.824Z,19.70
2022-08-03T04:08:04.154Z,19.68
2022-08-03T04:09:04.456Z,19.73
2022-08-03T04:10:14.423Z,19.78
2022-08-03T04:11:06.082Z,19.72
2022-08-03T04:12:05.329Z,19.68
2022-08-03T04:13:05.627Z,19.68
2022-08-03T04:14:05.925Z,19.73
2022-08-03T04:15:06.213Z,19.78
2022-08-03T04:16:06.522Z,19.75
2022-08-03T04:17:06.856Z,19.75
2022-08-03T04:18:07.135Z,19.76
2022-08-03T04:19:07.433Z,19.79
2022-08-03T04:20:07.741Z,19.86
2022-08-03T04:21:08.056Z,19.80
2022-08-03T04:22:08.386Z,19.76
2022-08-03T04:23:13.652Z,19.79
2022-08-03T04:24:09.969Z,19.83
2022-08-03T04:25:09.209Z,19.80
2022-08-03T04:26:09.519Z,19.73
2022-08-03T04:27:09.837Z,19.73
2022-08-03T04:28:29.845Z,19.76
2022-08-03T04:29:11.352Z,19.78
2022-08-03T04:30:10.577Z,19.80
2022-08-03T04:31:10.895Z,19.86
2022-08-03T04:32:11.223Z,19.86
2022-08-03T04:33:12.283Z,19.84
2022-08-03T04:34:11.867Z,19.83
2022-08-03T04:35:12.177Z,19.70
2022-08-03T04:36:12.473Z,19.61
2022-08-03T04:37:12.786Z,19.55
2022-08-03T04:38:13.105Z,19.47
2022-08-03T04:39:13.443Z,19.35
2022-08-03T04:40:13.738Z,19.28
2022-08-03T04:41:14.041Z,19.20
2022-08-03T04:42:14.350Z,19.11
2022-08-03T04:43:14.639Z,19.08
2022-08-03T04:44:14.917Z,19.06
2022-08-03T04:45:15.206Z,18.99
2022-08-03T04:46:15.514Z,19.01
2022-08-03T04:47:15.817Z,19.11
2022-08-03T04:48:16.147Z,19.23
2022-08-03T04:49:16.421Z,19.21
2022-08-03T04:50:21.227Z,19.28
2022-08-03T04:51:17.924Z,19.35
2022-08-03T04:52:17.547Z,19.47
2022-08-03T04:53:17.461Z,19.54
2022-08-03T04:54:17.766Z,19.61
2022-08-03T04:55:18.076Z,19.65
2022-08-03T04:56:18.383Z,19.69
2022-08-03T04:57:23.119Z,19.70
2022-08-03T04:58:19.026Z,19.73
2022-08-03T04:59:19.325Z,19.69
2022-08-03T05:00:20.379Z,19.70
2022-08-03T05:01:19.877Z,19.69
2022-08-03T05:02:20.191Z,19.60
2022-08-03T05:03:25.161Z,19.57
2022-08-03T05:04:20.764Z,19.54
2022-08-03T05:05:21.065Z,19.54
2022-08-03T05:06:21.306Z,19.60
2022-08-03T05:07:25.116Z,19.60
2022-08-03T05:08:28.198Z,19.65
2022-08-03T05:09:50.042Z,19.58
2022-08-03T05:10:23.531Z,19.58
2022-08-03T05:11:22.888Z,19.55
2022-08-03T05:12:23.173Z,19.61
2022-08-03T05:13:24.247Z,19.70
2022-08-03T05:14:28.249Z,19.79
2022-08-03T05:15:24.006Z,19.88
2022-08-03T05:16:24.309Z,19.94
2022-08-03T05:17:24.619Z,20.00
2022-08-03T05:18:24.916Z,20.05
2022-08-03T05:19:25.254Z,20.08
2022-08-03T05:20:25.570Z,20.09
2022-08-03T05:21:25.903Z,20.10
2022-08-03T05:22:27.195Z,20.12
2022-08-03T05:23:26.425Z,20.15
2022-08-03T05:24:26.728Z,20.18
2022-08-03T05:25:27.532Z,20.21
2022-08-03T05:26:27.372Z,20.24
2022-08-03T05:27:27.580Z,20.25
2022-08-03T05:28:27.852Z,20.25
2022-08-03T05:29:28.130Z,20.30
2022-08-03T05:30:33.696Z,20.31
2022-08-03T05:31:29.761Z,20.34
2022-08-03T05:32:29.000Z,20.38
2022-08-03T05:33:29.290Z,20.42
2022-08-03T05:34:29.594Z,20.46
2022-08-03T05:36:02.676Z,20.47
2022-08-03T05:36:31.223Z,20.54
2022-08-03T05:37:30.468Z,20.56
2022-08-03T05:38:34.156Z,20.62
2022-08-03T05:39:31.021Z,20.66
2022-08-03T05:40:31.318Z,20.72
2022-08-03T05:41:37.089Z,20.76
2022-08-03T05:42:32.919Z,20.80
2022-08-03T05:43:32.190Z,20.84
2022-08-03T05:44:32.548Z,20.91
2022-08-03T05:45:32.838Z,20.99
2022-08-03T05:46:33.110Z,21.05
2022-08-03T05:47:33.409Z,21.11
2022-08-03T05:48:33.677Z,21.17
2022-08-03T05:49:34.025Z,21.24
2022-08-03T05:50:34.229Z,21.29
2022-08-03T05:51:34.533Z,21.36
2022-08-03T05:52:34.853Z,21.39
2022-08-03T05:53:35.148Z,21.42
2022-08-03T05:54:55.819Z,21.45
2022-08-03T05:55:36.730Z,21.50
2022-08-03T05:56:36.003Z,21.54
2022-08-03T05:57:36.294Z,21.61
2022-08-03T05:58:36.602Z,21.71
2022-08-03T05:59:38.600Z,21.82
2022-08-03T06:00:37.189Z,21.91
2022-08-03T06:01:37.577Z,21.99
2022-08-03T06:02:37.813Z,22.04
2022-08-03T06:03:38.103Z,22.13
2022-08-03T06:04:38.409Z,22.23
2022-08-03T06:05:44.785Z,22.31
2022-08-03T06:06:40.061Z,22.34
2022-08-03T06:07:39.299Z,22.41
2022-08-03T06:08:39.609Z,22.50
2022-08-03T06:10:34.435Z,22.57
2022-08-03T06:10:41.194Z,22.68
2022-08-03T06:11:40.464Z,22.75
2022-08-03T06:12:40.777Z,22.83
2022-08-03T06:13:41.087Z,22.92
2022-08-03T06:14:41.390Z,22.97
2022-08-03T06:15:41.697Z,23.07
2022-08-03T06:16:42.048Z,23.12
2022-08-03T06:17:42.331Z,23.17
2022-08-03T06:18:42.609Z,23.26
2022-08-03T06:19:42.913Z,23.32
2022-08-03T06:20:43.227Z,23.35
2022-08-03T06:21:43.566Z,23.42
2022-08-03T06:22:50.844Z,23.47
2022-08-03T06:23:54.276Z,23.57
2022-08-03T06:24:52.249Z,23.60
2022-08-03T06:25:45.681Z,23.64
2022-08-03T06:26:44.927Z,23.67
2022-08-03T06:27:45.233Z,23.65
2022-08-03T06:28:52.248Z,23.65
2022-08-03T06:29:46.862Z,23.71
2022-08-03T06:30:46.101Z,23.72
2022-08-03T06:31:46.354Z,23.75
2022-08-03T06:32:51.795Z,23.77
2022-08-03T06:34:31.327Z,23.70
2022-08-03T06:34:48.188Z,23.76
2022-08-03T06:35:47.428Z,23.80
2022-08-03T06:36:47.779Z,23.86
2022-08-03T06:37:47.961Z,23.92
2022-08-03T06:38:48.243Z,23.95
2022-08-03T06:39:48.552Z,23.97
2022-08-03T06:40:48.823Z,24.00
2022-08-03T06:41:49.104Z,24.02
2022-08-03T06:42:49.416Z,24.02
2022-08-03T06:44:03.758Z,24.02
2022-08-03T06:44:51.012Z,24.02
2022-08-03T06:45:50.252Z,24.07
2022-08-03T06:46:50.591Z,24.08
2022-08-03T06:47:50.874Z,24.08
2022-08-03T06:48:51.148Z,24.08
2022-08-03T06:50:16.219Z,24.10
2022-08-03T06:50:53.046Z,24.07
2022-08-03T06:52:03.661Z,24.08
2022-08-03T06:52:53.345Z,24.10
2022-08-03T06:53:52.575Z,24.12
2022-08-03T06:54:52.878Z,24.13
2022-08-03T06:55:55.064Z,24.14
2022-08-03T06:56:53.541Z,24.14
2022-08-03T06:57:53.832Z,24.16
2022-08-03T06:58:54.098Z,24.17
2022-08-03T07:00:07.697Z,24.19
2022-08-03T07:00:55.702Z,24.23
2022-08-03T07:01:55.025Z,24.22
2022-08-03T07:02:58.294Z,24.20
2022-08-03T07:03:55.575Z,24.20
2022-08-03T07:04:55.950Z,24.22
2022-08-03T07:05:56.128Z,24.22
2022-08-03T07:06:56.437Z,24.22
2022-08-03T07:07:56.722Z,24.17
2022-08-03T07:08:59.532Z,24.14
2022-08-03T07:09:58.276Z,24.14
2022-08-03T07:10:57.580Z,24.16
2022-08-03T07:11:57.880Z,24.13
2022-08-03T07:12:58.177Z,24.14
2022-08-03T07:13:58.487Z,24.16
2022-08-03T07:15:01.219Z,24.16
2022-08-03T07:15:59.114Z,24.17
2022-08-03T07:16:59.427Z,24.17
2022-08-03T07:17:59.741Z,24.19
2022-08-03T07:19:00.079Z,24.17
2022-08-03T07:20:00.384Z,24.17
2022-08-03T07:21:00.706Z,24.19
2022-08-03T07:22:02.306Z,24.19
2022-08-03T07:23:01.254Z,24.19
2022-08-03T07:24:01.548Z,24.20
2022-08-03T07:25:01.840Z,24.16
2022-08-03T07:26:02.143Z,24.16
2022-08-03T07:27:02.540Z,24.16
2022-08-03T07:28:04.567Z,24.16
2022-08-03T07:29:03.122Z,24.14
2022-08-03T07:30:03.318Z,24.19
2022-08-03T07:31:03.612Z,24.22
2022-08-03T07:32:03.964Z,24.24
2022-08-03T07:33:04.259Z,24.27
2022-08-03T07:34:04.553Z,24.24
2022-08-03T07:35:08.738Z,24.23
2022-08-03T07:36:06.134Z,24.23
2022-08-03T07:37:05.524Z,24.26
2022-08-03T07:38:05.818Z,24.26
2022-08-03T07:39:15.905Z,24.29
2022-08-03T07:40:07.409Z,24.31
2022-08-03T07:41:06.663Z,24.32
2022-08-03T07:42:06.952Z,24.29
2022-08-03T07:43:07.254Z,24.31
2022-08-03T07:44:07.543Z,24.35
2022-08-03T07:45:07.857Z,24.37
2022-08-03T07:46:09.164Z,24.39
2022-08-03T07:47:08.454Z,24.41
2022-08-03T07:48:12.133Z,24.42
2022-08-03T07:49:09.002Z,24.42
2022-08-03T07:50:09.253Z,24.45
2022-08-03T07:51:09.553Z,24.50
2022-08-03T07:52:09.881Z,24.49
2022-08-03T07:53:10.188Z,24.52
2022-08-03T07:54:10.484Z,24.54
2022-08-03T07:55:10.783Z,24.57
2022-08-03T07:56:11.384Z,24.60
2022-08-03T07:57:11.414Z,24.63
2022-08-03T07:58:11.754Z,24.67
2022-08-03T07:59:12.051Z,24.68
2022-08-03T08:00:12.347Z,24.67
2022-08-03T08:01:15.205Z,24.69
2022-08-03T08:02:12.983Z,24.73
2022-08-03T08:03:13.308Z,24.76
2022-08-03T08:04:13.602Z,24.79
2022-08-03T08:05:13.903Z,24.87
2022-08-03T08:06:14.187Z,24.90
2022-08-03T08:07:14.496Z,24.97
2022-08-03T08:08:14.808Z,25.00
2022-08-03T08:09:15.158Z,24.98
2022-08-03T08:10:15.452Z,24.98
2022-08-03T08:11:15.753Z,25.02
2022-08-03T08:12:16.488Z,25.07
2022-08-03T08:13:16.368Z,25.12
2022-08-03T08:14:16.706Z,25.16
2022-08-03T08:15:17.041Z,25.15
2022-08-03T08:16:17.212Z,25.15
2022-08-03T08:17:17.496Z,25.17
2022-08-03T08:18:17.801Z,25.15
2022-08-03T08:19:18.103Z,25.15
2022-08-03T08:20:27.706Z,25.19
2022-08-03T08:21:19.664Z,25.22
2022-08-03T08:22:19.291Z,25.25
2022-08-03T08:23:41.677Z,25.27
2022-08-03T08:24:20.576Z,25.30
2022-08-03T08:25:19.814Z,25.32
2022-08-03T08:26:20.117Z,25.32
2022-08-03T08:27:20.412Z,25.35
2022-08-03T08:28:31.262Z,25.38
2022-08-03T08:29:22.031Z,25.43
2022-08-03T08:30:21.363Z,25.47
2022-08-03T08:31:21.577Z,25.46
2022-08-03T08:32:21.869Z,25.50
2022-08-03T08:33:23.156Z,25.50
2022-08-03T08:34:22.389Z,25.52
2022-08-03T08:35:22.674Z,25.50
2022-08-03T08:36:22.988Z,25.57
2022-08-03T08:37:23.280Z,25.65
2022-08-03T08:38:23.605Z,25.71
2022-08-03T08:39:23.787Z,25.74
2022-08-03T08:40:24.121Z,25.80
2022-08-03T08:41:24.420Z,25.84
2022-08-03T08:42:25.715Z,25.87
2022-08-03T08:43:24.971Z,25.87
2022-08-03T08:44:25.289Z,25.87
2022-08-03T08:45:25.607Z,25.79
2022-08-03T08:46:25.899Z,25.69
2022-08-03T08:47:26.240Z,25.56
2022-08-03T08:48:26.530Z,25.53
2022-08-03T08:49:26.845Z,25.56
2022-08-03T08:50:28.264Z,25.57
2022-08-03T08:51:58.069Z,25.61
2022-08-03T08:52:29.695Z,25.46
2022-08-03T08:53:28.047Z,25.39
2022-08-03T08:54:28.355Z,25.39
2022-08-03T08:55:28.649Z,25.42
2022-08-03T08:56:28.948Z,25.31
2022-08-03T08:57:42.404Z,25.37
2022-08-03T08:58:30.559Z,25.32
2022-08-03T08:59:47.609Z,25.24
2022-08-03T09:00:31.089Z,25.20
2022-08-03T09:01:30.356Z,25.31
2022-08-03T09:02:30.577Z,25.44
2022-08-03T09:03:31.160Z,25.52
2022-08-03T09:04:31.109Z,25.62
2022-08-03T09:05:54.581Z,25.72
2022-08-03T09:06:32.760Z,25.83
2022-08-03T09:07:32.188Z,25.65
2022-08-03T09:08:32.289Z,25.42
2022-08-03T09:10:10.325Z,25.35
2022-08-03T09:10:33.908Z,25.44
2022-08-03T09:11:52.542Z,25.47
2022-08-03T09:12:41.434Z,25.47
2022-08-03T09:13:34.713Z,25.43
2022-08-03T09:14:39.261Z,25.56
2022-08-03T09:15:35.255Z,25.68
2022-08-03T09:16:34.495Z,25.72
2022-08-03T09:17:34.793Z,25.50
2022-08-03T09:18:35.072Z,25.54
2022-08-03T09:19:35.382Z,25.64
2022-08-03T09:20:35.680Z,25.74
2022-08-03T09:21:36.073Z,25.89
2022-08-03T09:22:36.266Z,25.93
2022-08-03T09:24:00.703Z,25.98
2022-08-03T09:24:41.588Z,25.97
2022-08-03T09:25:37.212Z,25.98
2022-08-03T09:26:37.431Z,26.09
2022-08-03T09:27:37.719Z,26.27
2022-08-03T09:28:58.172Z,26.25
2022-08-03T09:29:41.143Z,26.04
2022-08-03T09:30:38.574Z,25.98
2022-08-03T09:31:38.863Z,26.06
2022-08-03T09:32:39.167Z,26.06
2022-08-03T09:33:39.505Z,26.18
2022-08-03T09:34:39.788Z,26.35
2022-08-03T09:35:57.650Z,26.47
2022-08-03T09:36:41.344Z,26.50
2022-08-03T09:38:12.150Z,26.59
2022-08-03T09:38:41.924Z,26.69
2022-08-03T09:39:42.412Z,26.83
2022-08-03T09:40:41.410Z,26.80
2022-08-03T09:41:41.698Z,26.86
2022-08-03T09:42:42.007Z,26.91
2022-08-03T09:43:42.314Z,26.83
2022-08-03T09:44:42.659Z,26.89
2022-08-03T09:45:42.972Z,26.91
2022-08-03T09:46:43.284Z,26.73
2022-08-03T09:47:45.082Z,26.81
2022-08-03T09:48:43.887Z,27.01
2022-08-03T09:49:44.285Z,27.23
2022-08-03T09:50:57.084Z,27.36
2022-08-03T09:52:31.443Z,27.33
2022-08-03T09:52:49.641Z,27.35
2022-08-03T09:53:57.106Z,27.47
2022-08-03T09:54:46.668Z,27.50
2022-08-03T09:56:32.952Z,27.69
2022-08-03T09:56:47.222Z,27.88
2022-08-03T09:57:46.468Z,27.96
2022-08-03T09:58:46.763Z,27.92
2022-08-03T09:59:47.102Z,27.91
2022-08-03T10:00:47.499Z,27.91
2022-08-03T10:01:47.808Z,27.89
2022-08-03T10:02:48.027Z,27.85
2022-08-03T10:04:03.837Z,27.76
2022-08-03T10:04:49.646Z,27.39
2022-08-03T10:05:48.878Z,27.36
2022-08-03T10:06:49.171Z,27.39
2022-08-03T10:07:49.483Z,27.48
2022-08-03T10:08:49.773Z,27.51
2022-08-03T10:09:50.091Z,27.58
2022-08-03T10:10:50.406Z,27.46
2022-08-03T10:11:50.703Z,27.38
2022-08-03T10:12:50.992Z,27.38
2022-08-03T10:13:51.285Z,27.36
2022-08-03T10:14:52.613Z,27.61
2022-08-03T10:16:22.022Z,27.79
2022-08-03T10:16:53.164Z,27.91
2022-08-03T10:17:52.410Z,27.98
2022-08-03T10:18:54.482Z,28.07
2022-08-03T10:19:52.988Z,28.11
2022-08-03T10:20:53.310Z,28.28
2022-08-03T10:21:53.532Z,28.58
2022-08-03T10:22:53.827Z,28.73
2022-08-03T10:23:54.125Z,29.01
2022-08-03T10:24:54.419Z,28.96
2022-08-03T10:25:54.729Z,29.08
2022-08-03T10:26:55.004Z,29.16
2022-08-03T10:27:55.321Z,29.07
2022-08-03T10:28:55.618Z,29.01
2022-08-03T10:29:55.896Z,29.20
2022-08-03T10:30:56.179Z,29.28
2022-08-03T10:31:58.422Z,29.52
2022-08-03T10:32:56.742Z,29.60
2022-08-03T10:33:57.046Z,29.63
2022-08-03T10:34:59.938Z,29.57
2022-08-03T10:35:58.626Z,29.45
2022-08-03T10:36:57.862Z,29.16
2022-08-03T10:37:59.031Z,29.33
2022-08-03T10:38:58.391Z,29.38
2022-08-03T10:39:58.649Z,29.53
2022-08-03T10:40:59.358Z,29.62
2022-08-03T10:42:00.060Z,29.97
2022-08-03T10:42:59.502Z,29.82
2022-08-03T10:43:59.816Z,29.75
2022-08-03T10:45:00.114Z,29.70
2022-08-03T10:46:00.451Z,29.99
2022-08-03T10:47:00.745Z,30.09
2022-08-03T10:48:01.039Z,30.09
2022-08-03T10:49:01.483Z,30.19
2022-08-03T10:50:01.568Z,29.77
2022-08-03T10:51:01.893Z,29.38
2022-08-03T10:52:02.716Z,29.16
2022-08-03T10:53:03.975Z,29.20
2022-08-03T10:54:02.730Z,29.40
2022-08-03T10:55:03.408Z,29.53
2022-08-03T10:56:03.421Z,29.79
2022-08-03T10:57:14.302Z,29.97
2022-08-03T10:58:09.338Z,29.99
2022-08-03T10:59:05.382Z,29.82
2022-08-03T11:00:04.615Z,29.52
2022-08-03T11:01:05.029Z,29.65
2022-08-03T11:02:05.274Z,29.96
2022-08-03T11:03:05.572Z,30.40
2022-08-03T11:04:10.237Z,30.67
2022-08-03T11:05:09.017Z,30.69
2022-08-03T11:06:06.458Z,30.74
2022-08-03T11:07:06.786Z,30.90
2022-08-03T11:08:07.084Z,31.21
2022-08-03T11:09:07.378Z,31.31
2022-08-03T11:10:10.506Z,31.08
2022-08-03T11:11:07.917Z,30.86
2022-08-03T11:12:08.249Z,30.98
2022-08-03T11:13:08.548Z,30.64
2022-08-03T11:14:08.846Z,30.38
2022-08-03T11:15:09.124Z,30.47
2022-08-03T11:16:14.148Z,30.68
2022-08-03T11:17:14.050Z,30.71
2022-08-03T11:18:11.147Z,30.81
2022-08-03T11:19:10.308Z,30.93
2022-08-03T11:20:10.542Z,31.06
2022-08-03T11:21:10.845Z,31.27
2022-08-03T11:22:11.169Z,31.55
2022-08-03T11:23:11.387Z,31.43
2022-08-03T11:24:11.671Z,31.30
2022-08-03T11:25:53.861Z,31.39
2022-08-03T11:26:13.256Z,31.73
2022-08-03T11:27:12.516Z,31.79
2022-08-03T11:28:12.829Z,31.93
2022-08-03T11:29:13.083Z,32.06
2022-08-03T11:30:13.352Z,31.73
2022-08-03T11:31:32.768Z,31.31
2022-08-03T11:32:19.520Z,31.18
2022-08-03T11:33:14.217Z,30.87
2022-08-03T11:34:14.567Z,30.86
2022-08-03T11:35:14.738Z,30.86
2022-08-03T11:36:15.016Z,31.02
2022-08-03T11:37:16.733Z,30.89
2022-08-03T11:38:15.588Z,30.61
2022-08-03T11:39:16.995Z,30.57
2022-08-03T11:40:16.150Z,30.38
2022-08-03T11:41:16.428Z,30.61
2022-08-03T11:42:16.707Z,30.81
2022-08-03T11:43:17.010Z,31.04
2022-08-03T11:44:17.354Z,30.93
2022-08-03T11:45:17.657Z,31.08
2022-08-03T11:46:29.537Z,31.35
2022-08-03T11:47:20.197Z,31.70
2022-08-03T11:48:18.609Z,31.87
2022-08-03T11:49:18.917Z,31.72
2022-08-03T11:50:19.250Z,31.88
2022-08-03T11:51:19.566Z,31.88
2022-08-03T11:52:26.681Z,31.95
2022-08-03T11:53:21.191Z,32.00
2022-08-03T11:54:20.410Z,31.93
2022-08-03T11:55:20.718Z,32.32
2022-08-03T11:56:21.048Z,32.48
2022-08-03T11:57:21.346Z,31.98
2022-08-03T11:59:00.851Z,31.50
2022-08-03T11:59:23.023Z,30.90
2022-08-03T12:00:22.262Z,30.94
2022-08-03T12:01:23.211Z,30.96
2022-08-03T12:02:22.819Z,30.83
2022-08-03T12:03:23.154Z,31.24
2022-08-03T12:04:23.392Z,31.38
2022-08-03T12:05:23.672Z,31.36
2022-08-03T12:06:23.958Z,31.62
2022-08-03T12:08:02.729Z,31.84
2022-08-03T12:08:25.578Z,32.10
2022-08-03T12:09:24.818Z,32.48
2022-08-03T12:10:25.126Z,32.70
2022-08-03T12:11:25.420Z,32.80
2022-08-03T12:12:26.063Z,33.11
2022-08-03T12:14:44.034Z,33.34
2022-08-03T12:14:50.841Z,33.58
2022-08-03T12:15:27.668Z,33.43
2022-08-03T12:16:26.807Z,32.84
2022-08-03T12:17:27.128Z,32.49
2022-08-03T12:18:27.424Z,32.74
2022-08-03T12:19:27.723Z,32.69
2022-08-03T12:20:34.625Z,32.49
2022-08-03T12:21:29.296Z,32.73
2022-08-03T12:22:28.563Z,32.80
2022-08-03T12:23:28.861Z,33.29
2022-08-03T12:24:29.136Z,33.60
2022-08-03T12:25:39.178Z,33.42
2022-08-03T12:26:30.721Z,33.73
2022-08-03T12:27:29.996Z,33.61
2022-08-03T12:28:37.389Z,33.19
2022-08-03T12:29:31.539Z,33.30
2022-08-03T12:30:30.777Z,32.98
2022-08-03T12:31:31.078Z,32.15
2022-08-03T12:32:31.380Z,32.22
2022-08-03T12:33:31.686Z,32.33
2022-08-03T12:34:32.026Z,32.37
2022-08-03T12:35:32.275Z,32.13
2022-08-03T12:36:32.608Z,32.40
2022-08-03T12:37:33.186Z,32.69
2022-08-03T12:38:33.174Z,32.58
2022-08-03T12:39:33.408Z,32.73
2022-08-03T12:40:33.746Z,33.17
2022-08-03T12:41:34.432Z,33.57
2022-08-03T12:42:35.040Z,33.64
2022-08-03T12:43:37.981Z,33.67
2022-08-03T12:44:36.007Z,33.11
2022-08-03T12:45:35.244Z,32.95
2022-08-03T12:46:41.758Z,32.81
2022-08-03T12:47:35.811Z,33.03
2022-08-03T12:48:36.118Z,33.04
2022-08-03T12:49:36.510Z,32.84
2022-08-03T12:50:36.757Z,32.89
2022-08-03T12:51:37.102Z,32.81
2022-08-03T12:52:37.394Z,32.67
2022-08-03T12:53:37.680Z,32.51
2022-08-03T12:54:37.991Z,32.51
2022-08-03T12:55:57.942Z,32.77
2022-08-03T12:56:39.606Z,32.61
2022-08-03T12:57:38.898Z,32.64
2022-08-03T12:58:39.132Z,32.89
2022-08-03T12:59:41.190Z,33.22
2022-08-03T13:00:39.758Z,33.63
2022-08-03T13:01:54.878Z,33.68
2022-08-03T13:02:41.397Z,33.65
2022-08-03T13:03:42.583Z,33.22
2022-08-03T13:04:41.063Z,32.80
2022-08-03T13:05:42.268Z,32.71
2022-08-03T13:06:41.615Z,32.74
2022-08-03T13:07:41.903Z,32.69
2022-08-03T13:08:42.191Z,32.77
2022-08-03T13:09:42.520Z,32.64
2022-08-03T13:10:42.824Z,32.71
2022-08-03T13:11:57.630Z,32.58
2022-08-03T13:12:44.404Z,32.48
2022-08-03T13:13:44.138Z,32.66
2022-08-03T13:14:44.024Z,32.88
2022-08-03T13:15:47.812Z,32.88
2022-08-03T13:16:44.614Z,32.84
2022-08-03T13:17:44.823Z,32.77
2022-08-03T13:18:45.132Z,32.51
2022-08-03T13:19:45.454Z,32.61
2022-08-03T13:20:47.605Z,32.77
2022-08-03T13:22:01.977Z,32.96
2022-08-03T13:22:47.285Z,32.96
2022-08-03T13:23:46.518Z,32.89
2022-08-03T13:24:46.837Z,32.93
2022-08-03T13:25:55.483Z,33.11
2022-08-03T13:26:51.244Z,33.36
2022-08-03T13:28:13.798Z,33.51
2022-08-03T13:28:50.969Z,33.70
2022-08-03T13:29:50.139Z,33.85
2022-08-03T13:30:48.603Z,33.90
2022-08-03T13:31:50.572Z,33.70
2022-08-03T13:32:50.052Z,33.80
2022-08-03T13:33:49.403Z,34.01
2022-08-03T13:34:49.706Z,34.14
2022-08-03T13:35:50.081Z,33.94
2022-08-03T13:37:08.343Z,33.94
2022-08-03T13:37:51.684Z,34.04
2022-08-03T13:38:50.831Z,33.90
2022-08-03T13:39:59.027Z,33.87
2022-08-03T13:40:52.507Z,33.53
2022-08-03T13:41:51.762Z,33.36
2022-08-03T13:42:55.825Z,33.13
2022-08-03T13:44:12.073Z,32.99
2022-08-03T13:44:53.696Z,32.81
2022-08-03T13:45:56.804Z,32.43
2022-08-03T13:46:54.257Z,32.21
2022-08-03T13:47:53.493Z,32.07
2022-08-03T13:48:57.687Z,32.11
2022-08-03T13:50:01.066Z,32.36
2022-08-03T13:50:57.195Z,32.70
2022-08-03T13:51:54.631Z,32.70
2022-08-03T13:52:55.721Z,32.79
2022-08-03T13:53:55.233Z,32.84
2022-08-03T13:54:59.327Z,33.03
2022-08-03T13:55:55.785Z,32.79
2022-08-03T13:57:00.668Z,32.58
2022-08-03T13:58:04.252Z,32.59
2022-08-03T13:58:57.622Z,32.67
2022-08-03T14:00:00.628Z,32.59
2022-08-03T14:01:01.149Z,32.67
2022-08-03T14:01:59.288Z,32.52
2022-08-03T14:03:09.040Z,32.40
2022-08-03T14:03:58.859Z,32.52
2022-08-03T14:04:58.912Z,32.71
2022-08-03T14:05:58.408Z,32.84
2022-08-03T14:06:58.712Z,32.84
2022-08-03T14:08:04.971Z,33.15
2022-08-03T14:09:00.765Z,33.49
2022-08-03T14:09:59.577Z,33.78
2022-08-03T14:11:00.676Z,34.05
2022-08-03T14:12:06.870Z,34.42
2022-08-03T14:13:01.435Z,34.44
2022-08-03T14:14:00.701Z,34.53
2022-08-03T14:15:01.656Z,34.54
2022-08-03T14:16:05.042Z,34.42
2022-08-03T14:17:01.533Z,34.64
2022-08-03T14:18:01.813Z,34.42
2022-08-03T14:19:02.098Z,34.41
2022-08-03T14:20:03.513Z,34.48
2022-08-03T14:21:07.626Z,34.50
2022-08-03T14:22:06.774Z,34.31
2022-08-03T14:23:03.231Z,34.60
2022-08-03T14:24:03.574Z,34.81
2022-08-03T14:25:03.893Z,34.96
2022-08-03T14:26:04.340Z,35.45
2022-08-03T14:27:09.466Z,35.50
2022-08-03T14:28:04.759Z,35.42
2022-08-03T14:29:05.058Z,35.33
2022-08-03T14:30:05.332Z,35.18
2022-08-03T14:31:08.377Z,35.36
2022-08-03T14:32:11.139Z,35.84
2022-08-03T14:33:07.160Z,36.39
2022-08-03T14:34:06.431Z,36.63
2022-08-03T14:35:06.756Z,36.73
2022-08-03T14:36:07.085Z,36.68
2022-08-03T14:37:07.398Z,36.72
2022-08-03T14:38:07.684Z,37.07
2022-08-03T14:39:11.866Z,37.12
2022-08-03T14:40:08.274Z,37.41
2022-08-03T14:41:20.101Z,37.56
2022-08-03T14:42:13.778Z,37.92
2022-08-03T14:43:09.200Z,37.51
2022-08-03T14:44:10.259Z,37.32
2022-08-03T14:45:19.884Z,37.66
2022-08-03T14:46:14.805Z,38.07
2022-08-03T14:47:10.321Z,38.55
2022-08-03T14:50:30.652Z,38.51
2022-08-03T14:50:35.759Z,38.07
2022-08-03T14:50:38.635Z,38.41
2022-08-03T14:51:12.494Z,38.10
2022-08-03T14:52:11.789Z,38.36
2022-08-03T14:53:11.967Z,38.79
2022-08-03T14:54:12.264Z,38.99
2022-08-03T14:55:13.809Z,38.53
2022-08-03T14:56:12.802Z,38.61
2022-08-03T14:57:13.125Z,38.45
2022-08-03T14:58:19.436Z,38.12
2022-08-03T14:59:15.674Z,37.89